Time;durP1;ratioP1;P1;durP2;ratioP2;P2;SDS_P1;SDS_P2;PMS_P1;PMS_P2;Temp;Humidity;BMP_temperature;BMP_pressure;BME280_temperature;BME280_humidity;BME280_pressure;Samples;Min_cycle;Max_cycle;Signal;HPM_P1;HPM_P2
2023/07/08 00:00:50;;;;;;;12.80;6.03;;;28.60;61.10;;;;;;6245976;23;20000;-76
2023/07/08 00:03:17;;;;;;;12.70;6.30;;;28.60;61.20;;;;;;6219153;23;20004;-77
2023/07/08 00:05:45;;;;;;;13.55;6.68;;;28.60;61.40;;;;;;6246166;23;20007;-77
2023/07/08 00:08:19;;;;;;;13.70;6.63;;;28.50;61.30;;;;;;6219520;23;20002;-75
2023/07/08 00:10:44;;;;;;;10.63;6.38;;;28.50;61.50;;;;;;6245740;23;20099;-78
2023/07/08 00:13:11;;;;;;;13.57;6.32;;;28.50;62.30;;;;;;6246016;23;20023;-76
2023/07/08 00:15:37;;;;;;;13.50;5.85;;;28.50;61.80;;;;;;6245843;23;20050;-76
2023/07/08 00:18:16;;;;;;;14.68;6.65;;;28.50;62.10;;;;;;6245805;23;20138;-76
2023/07/08 00:20:47;;;;;;;9.45;5.68;;;28.50;62.50;;;;;;6245989;23;20079;-76
2023/07/08 00:23:13;;;;;;;12.35;5.72;;;28.50;62.60;;;;;;6245478;23;20028;-75
2023/07/08 00:25:40;;;;;;;13.38;6.20;;;28.50;62.20;;;;;;6245436;23;20038;-76
2023/07/08 00:28:10;;;;;;;11.35;6.40;;;28.40;62.50;;;;;;6245309;23;19996;-75
2023/07/08 00:30:35;;;;;;;10.68;7.05;;;28.40;63.10;;;;;;6218585;23;20110;-77
2023/07/08 00:33:01;;;;;;;11.77;7.20;;;28.30;62.90;;;;;;6245726;23;20413;-75
2023/07/08 00:35:30;;;;;;;10.68;6.22;;;28.30;63.10;;;;;;6245539;23;20101;-75
2023/07/08 00:38:01;;;;;;;12.70;7.15;;;28.30;62.80;;;;;;6245373;23;19992;-76
2023/07/08 00:40:29;;;;;;;14.35;6.75;;;28.30;63.10;;;;;;6245606;23;20276;-77
2023/07/08 00:42:56;;;;;;;12.25;6.30;;;28.20;63.10;;;;;;6245272;23;20071;-73
2023/07/08 00:45:56;;;;;;;11.38;7.32;;;28.20;63.30;;;;;;6245341;23;20083;-76
2023/07/08 00:48:29;;;;;;;12.80;6.50;;;28.10;63.50;;;;;;6218729;23;20053;-76
2023/07/08 00:50:55;;;;;;;12.05;7.20;;;28.00;63.70;;;;;;6246137;23;20020;-75
2023/07/08 00:53:29;;;;;;;13.15;6.88;;;27.90;63.60;;;;;;6250918;23;20356;-76
2023/07/08 00:56:03;;;;;;;11.95;6.45;;;28.00;64.40;;;;;;6245321;23;20004;-75
2023/07/08 00:58:43;;;;;;;12.18;6.38;;;27.90;63.90;;;;;;6245289;23;20003;-75
2023/07/08 01:01:10;;;;;;;11.57;6.97;;;27.90;63.90;;;;;;6245230;23;20004;-77
2023/07/08 01:03:57;;;;;;;13.35;7.28;;;27.90;63.70;;;;;;6245415;23;20426;-75
2023/07/08 01:06:31;;;;;;;11.73;6.85;;;27.80;64.20;;;;;;6245430;23;20008;-75
2023/07/08 01:09:04;;;;;;;10.63;6.60;;;27.70;64.40;;;;;;6245549;23;20001;-76
2023/07/08 01:11:32;;;;;;;11.93;6.18;;;27.50;65.00;;;;;;6245777;23;20058;-76
2023/07/08 01:14:01;;;;;;;13.38;6.90;;;27.40;65.00;;;;;;6245527;23;20062;-75
2023/07/08 01:16:27;;;;;;;12.85;6.88;;;27.30;65.10;;;;;;6245174;23;20000;-75
2023/07/08 01:18:53;;;;;;;11.30;6.45;;;27.20;65.20;;;;;;6245048;23;20004;-75
2023/07/08 01:21:33;;;;;;;13.68;6.40;;;27.20;65.30;;;;;;6245375;23;20015;-76
2023/07/08 01:24:01;;;;;;;11.77;6.15;;;27.10;65.70;;;;;;6245105;23;20004;-76
2023/07/08 01:26:28;;;;;;;9.38;5.82;;;27.10;65.50;;;;;;6244573;23;20405;-75
2023/07/08 01:28:56;;;;;;;11.90;5.70;;;27.10;65.60;;;;;;6245130;23;20075;-76
2023/07/08 01:31:23;;;;;;;12.02;5.75;;;27.20;65.50;;;;;;6244635;23;20083;-76
2023/07/08 01:33:50;;;;;;;9.13;5.55;;;27.20;65.70;;;;;;6245316;23;20369;-76
2023/07/08 01:36:17;;;;;;;14.93;5.97;;;27.10;65.70;;;;;;6244478;23;20004;-76
2023/07/08 01:38:44;;;;;;;9.75;5.90;;;27.20;66.00;;;;;;6244479;23;20010;-75
2023/07/08 01:41:15;;;;;;;14.25;5.85;;;27.20;66.00;;;;;;6244620;23;20010;-76
2023/07/08 01:43:41;;;;;;;11.43;5.68;;;27.30;66.20;;;;;;6245028;23;20034;-74
2023/07/08 01:46:15;;;;;;;9.38;5.63;;;27.30;66.10;;;;;;6244948;23;20008;-75
2023/07/08 01:48:45;;;;;;;10.13;5.28;;;27.40;66.20;;;;;;6244676;23;20342;-76
2023/07/08 01:51:12;;;;;;;7.80;5.55;;;27.40;66.30;;;;;;6244822;23;20338;-76
2023/07/08 01:53:42;;;;;;;10.45;6.10;;;27.30;66.50;;;;;;6244796;23;20430;-76
2023/07/08 01:56:10;;;;;;;11.57;5.90;;;27.20;66.70;;;;;;6244598;23;20075;-73
2023/07/08 01:58:36;;;;;;;8.98;5.72;;;27.20;66.70;;;;;;6244452;23;20004;-75
2023/07/08 02:01:02;;;;;;;12.00;6.65;;;27.20;66.90;;;;;;6244571;23;20100;-75
2023/07/08 02:03:28;;;;;;;12.52;5.60;;;27.20;66.90;;;;;;6244513;23;20458;-75
2023/07/08 02:05:54;;;;;;;11.88;5.60;;;27.20;67.20;;;;;;6244517;23;20010;-76
2023/07/08 02:08:20;;;;;;;11.68;5.55;;;27.10;67.10;;;;;;6244686;23;20367;-76
2023/07/08 02:10:50;;;;;;;9.70;5.47;;;27.10;67.30;;;;;;6244318;23;20012;-76
2023/07/08 02:13:16;;;;;;;8.85;5.47;;;27.10;67.30;;;;;;6244942;23;20411;-76
2023/07/08 02:15:42;;;;;;;13.50;6.20;;;27.10;68.00;;;;;;6244806;23;20071;-76
2023/07/08 02:18:07;;;;;;;13.32;5.90;;;27.10;67.50;;;;;;6244527;23;20061;-76
2023/07/08 02:20:33;;;;;;;11.50;5.88;;;27.10;68.00;;;;;;6244731;23;20011;-76
2023/07/08 02:22:59;;;;;;;10.20;6.00;;;27.10;68.60;;;;;;6217723;23;20012;-76
2023/07/08 02:25:24;;;;;;;8.88;5.68;;;27.00;67.90;;;;;;6244715;23;20010;-76
2023/07/08 02:27:50;;;;;;;12.27;6.28;;;27.00;67.90;;;;;;6244532;23;20000;-76
2023/07/08 02:30:16;;;;;;;11.23;6.00;;;26.90;68.10;;;;;;6244718;23;20047;-76
2023/07/08 02:32:48;;;;;;;11.40;6.00;;;26.90;68.70;;;;;;6244284;23;20034;-75
2023/07/08 02:35:14;;;;;;;10.52;5.45;;;26.90;68.60;;;;;;6243814;23;20039;-75
2023/07/08 02:37:40;;;;;;;13.55;6.18;;;26.80;68.50;;;;;;6244260;23;19996;-75
2023/07/08 02:40:06;;;;;;;10.15;5.50;;;26.90;69.00;;;;;;6244207;23;19996;-76
2023/07/08 02:42:32;;;;;;;11.25;5.53;;;27.00;68.20;;;;;;6217397;23;20012;-76
2023/07/08 02:44:57;;;;;;;7.32;5.15;;;27.00;68.00;;;;;;6244236;23;20119;-75
2023/07/08 02:47:23;;;;;;;9.90;5.57;;;27.00;67.90;;;;;;6244041;23;20000;-75
2023/07/08 02:49:50;;;;;;;13.18;6.80;;;27.00;68.10;;;;;;6244177;23;20087;-75
2023/07/08 02:52:16;;;;;;;10.63;5.10;;;27.10;68.10;;;;;;6246491;23;20019;-76
2023/07/08 02:54:41;;;;;;;8.73;5.05;;;27.10;67.90;;;;;;6246345;23;20342;-76
2023/07/08 02:57:07;;;;;;;11.15;5.30;;;27.10;67.90;;;;;;6246104;23;20004;-76
2023/07/08 02:59:33;;;;;;;8.57;5.22;;;27.10;68.00;;;;;;6246348;23;20000;-75
2023/07/08 03:01:58;;;;;;;10.00;5.30;;;27.00;67.90;;;;;;6246186;23;20004;-76
2023/07/08 03:04:25;;;;;;;9.88;5.35;;;26.90;68.10;;;;;;6246320;23;20004;-76
2023/07/08 03:06:51;;;;;;;10.40;5.28;;;26.80;68.40;;;;;;6246117;23;20487;-76
2023/07/08 03:09:17;;;;;;;8.30;5.25;;;26.80;68.60;;;;;;6246435;23;20000;-75
2023/07/08 03:11:43;;;;;;;9.68;5.20;;;26.80;68.60;;;;;;6245688;23;20039;-76
2023/07/08 03:14:09;;;;;;;10.20;5.22;;;26.80;68.60;;;;;;6218771;23;20011;-75
2023/07/08 03:16:35;;;;;;;9.25;5.43;;;26.80;68.60;;;;;;6246234;23;20365;-75
2023/07/08 03:19:01;;;;;;;8.77;5.25;;;26.80;68.70;;;;;;6246126;23;20429;-75
2023/07/08 03:21:27;;;;;;;11.13;5.88;;;26.80;68.60;;;;;;6247113;23;20000;-76
2023/07/08 03:23:52;;;;;;;12.25;5.47;;;26.80;68.60;;;;;;6246220;23;20460;-76
2023/07/08 03:26:25;;;;;;;10.43;5.88;;;26.80;68.50;;;;;;6246050;23;20003;-74
2023/07/08 03:28:51;;;;;;;11.50;5.72;;;26.80;68.20;;;;;;6246184;23;20000;-75
2023/07/08 03:31:17;;;;;;;8.88;5.50;;;26.70;68.60;;;;;;6245699;23;20020;-76
2023/07/08 03:33:43;;;;;;;10.95;5.65;;;26.70;68.40;;;;;;6246105;23;20005;-76
2023/07/08 03:36:23;;;;;;;10.95;6.15;;;26.60;68.50;;;;;;6246063;23;20333;-76
2023/07/08 03:38:51;;;;;;;10.70;5.72;;;26.60;68.70;;;;;;6246044;23;20035;-76
2023/07/08 03:41:17;;;;;;;10.82;5.38;;;26.60;68.60;;;;;;6246017;23;20069;-77
2023/07/08 03:43:43;;;;;;;10.65;5.32;;;26.70;68.50;;;;;;6246034;23;20003;-76
2023/07/08 03:46:11;;;;;;;10.85;5.93;;;26.60;68.50;;;;;;6246054;23;20004;-76
2023/07/08 03:48:38;;;;;;;14.15;6.03;;;26.60;68.60;;;;;;6245992;23;20000;-76
2023/07/08 03:51:04;;;;;;;8.98;5.40;;;26.60;68.70;;;;;;6246031;23;20008;-76
2023/07/08 03:53:30;;;;;;;10.13;5.43;;;26.50;68.70;;;;;;6245832;23;20000;-76
2023/07/08 03:55:55;;;;;;;12.73;6.10;;;26.50;69.30;;;;;;6245808;23;20449;-76
2023/07/08 03:58:21;;;;;;;11.70;5.60;;;26.40;69.30;;;;;;6245833;23;20043;-76
2023/07/08 04:00:47;;;;;;;9.80;5.45;;;26.50;69.30;;;;;;6245919;23;20123;-75
2023/07/08 04:03:12;;;;;;;12.40;5.72;;;26.40;69.30;;;;;;6245946;23;20007;-76
2023/07/08 04:05:38;;;;;;;12.15;5.78;;;26.50;69.20;;;;;;6245782;23;20000;-76
2023/07/08 04:08:04;;;;;;;10.75;5.40;;;26.50;69.20;;;;;;6246256;23;20003;-76
2023/07/08 04:10:30;;;;;;;8.60;5.88;;;26.50;69.40;;;;;;6246080;23;20019;-76
2023/07/08 04:12:55;;;;;;;12.55;5.63;;;26.40;69.30;;;;;;6245807;23;20022;-76
2023/07/08 04:15:25;;;;;;;11.60;5.65;;;26.40;69.20;;;;;;6245771;23;20014;-76
2023/07/08 04:17:53;;;;;;;16.67;6.20;;;26.30;69.30;;;;;;6245390;23;20000;-75
2023/07/08 04:20:19;;;;;;;10.68;5.65;;;26.30;69.50;;;;;;6245412;23;20018;-75
2023/07/08 04:22:46;;;;;;;15.20;5.68;;;26.30;69.50;;;;;;6245828;23;20028;-77
2023/07/08 04:25:14;;;;;;;11.25;5.75;;;26.30;69.50;;;;;;6245677;23;20067;-76
2023/07/08 04:27:40;;;;;;;9.70;5.18;;;26.30;69.70;;;;;;6245782;23;19996;-73
2023/07/08 04:30:07;;;;;;;11.18;5.68;;;26.30;69.60;;;;;;6245928;23;20062;-77
2023/07/08 04:32:33;;;;;;;10.45;5.70;;;26.30;69.70;;;;;;6245732;23;20004;-77
2023/07/08 04:34:59;;;;;;;10.75;5.60;;;26.30;69.90;;;;;;6245910;23;20030;-77
2023/07/08 04:37:25;;;;;;;7.85;5.10;;;26.20;70.10;;;;;;6245618;23;20007;-77
2023/07/08 04:39:51;;;;;;;13.15;5.32;;;26.30;69.90;;;;;;6245377;23;20008;-76
2023/07/08 04:42:17;;;;;;;8.18;4.85;;;26.30;69.50;;;;;;6245579;23;20003;-77
2023/07/08 04:44:43;;;;;;;11.95;5.68;;;26.40;69.60;;;;;;6245830;23;20008;-77
2023/07/08 04:47:11;;;;;;;12.50;5.18;;;26.50;69.70;;;;;;6218597;23;20383;-77
2023/07/08 04:49:37;;;;;;;10.45;5.50;;;26.40;69.60;;;;;;6245449;23;20000;-77
2023/07/08 04:52:03;;;;;;;11.18;5.15;;;26.50;69.50;;;;;;6245222;23;20000;-77
2023/07/08 04:54:29;;;;;;;10.07;5.30;;;26.50;68.90;;;;;;6218755;23;20008;-77
2023/07/08 04:56:55;;;;;;;8.63;5.03;;;26.60;69.00;;;;;;6245679;23;20011;-77
2023/07/08 04:59:23;;;;;;;10.15;5.40;;;26.70;68.60;;;;;;6244950;23;20004;-77
2023/07/08 05:01:50;;;;;;;12.68;5.68;;;26.70;68.40;;;;;;6244848;23;20011;-78
2023/07/08 05:04:17;;;;;;;8.70;5.32;;;26.80;68.20;;;;;;6245248;23;20079;-77
2023/07/08 05:06:43;;;;;;;13.02;5.57;;;26.80;68.00;;;;;;6245344;23;20000;-77
2023/07/08 05:09:10;;;;;;;8.00;4.82;;;27.00;67.90;;;;;;6245311;23;20437;-76
2023/07/08 05:11:36;;;;;;;10.52;5.72;;;27.10;67.60;;;;;;6244834;23;20017;-77
2023/07/08 05:14:03;;;;;;;8.55;5.10;;;27.10;67.30;;;;;;6245023;23;20004;-77
2023/07/08 05:16:28;;;;;;;12.55;5.32;;;27.20;67.00;;;;;;6245869;23;20012;-77
2023/07/08 05:18:54;;;;;;;10.32;5.28;;;27.20;66.50;;;;;;6245304;23;20429;-77
2023/07/08 05:21:21;;;;;;;13.70;5.70;;;27.30;66.40;;;;;;6245491;23;20008;-76
2023/07/08 05:23:49;;;;;;;9.15;5.00;;;27.40;66.10;;;;;;6244989;23;20000;-76
2023/07/08 05:26:15;;;;;;;14.40;4.78;;;27.60;65.80;;;;;;6245076;23;20012;-76
2023/07/08 05:28:41;;;;;;;11.27;5.43;;;27.80;65.80;;;;;;6244988;23;20003;-77
2023/07/08 05:31:07;;;;;;;8.75;5.35;;;28.00;65.20;;;;;;6244621;23;20016;-76
2023/07/08 05:33:34;;;;;;;9.70;4.45;;;28.20;64.50;;;;;;6245000;23;20031;-78
2023/07/08 05:36:00;;;;;;;8.45;4.38;;;28.40;64.40;;;;;;6245044;23;20130;-76
2023/07/08 05:38:27;;;;;;;9.90;5.03;;;28.70;63.60;;;;;;6245020;23;20007;-76
2023/07/08 05:40:58;;;;;;;7.57;4.50;;;28.80;63.30;;;;;;6217859;23;20008;-76
2023/07/08 05:43:24;;;;;;;9.27;4.75;;;29.20;62.80;;;;;;6244952;23;20011;-76
2023/07/08 05:45:50;;;;;;;12.18;4.70;;;29.30;61.70;;;;;;6218111;23;20004;-76
2023/07/08 05:48:16;;;;;;;14.50;4.72;;;29.50;61.70;;;;;;6245331;23;20004;-76
2023/07/08 05:50:44;;;;;;;10.77;4.97;;;29.60;61.00;;;;;;6245170;23;20200;-76
2023/07/08 05:53:11;;;;;;;7.82;4.57;;;29.80;60.50;;;;;;6245012;23;20422;-76
2023/07/08 05:55:37;;;;;;;10.05;4.68;;;29.90;60.00;;;;;;6244994;23;20448;-76
2023/07/08 05:58:03;;;;;;;8.85;4.95;;;30.30;59.40;;;;;;6218300;23;20515;-77
2023/07/08 06:00:29;;;;;;;8.80;4.50;;;30.50;59.10;;;;;;6245095;23;20013;-76
2023/07/08 06:02:54;;;;;;;11.32;4.72;;;30.80;58.30;;;;;;6244992;23;20330;-76
2023/07/08 06:05:20;;;;;;;10.52;4.75;;;30.70;58.00;;;;;;6244550;23;20342;-76
2023/07/08 06:07:46;;;;;;;9.32;5.25;;;30.50;58.30;;;;;;6244868;23;19997;-77
2023/07/08 06:10:12;;;;;;;10.35;5.55;;;30.40;58.60;;;;;;6244359;23;20004;-77
2023/07/08 06:12:37;;;;;;;8.80;4.78;;;30.60;58.50;;;;;;6244494;23;20036;-78
2023/07/08 06:15:03;;;;;;;10.38;5.13;;;30.90;57.90;;;;;;6244348;23;20476;-77
2023/07/08 06:17:29;;;;;;;9.93;4.95;;;31.20;57.20;;;;;;6244562;23;20379;-77
2023/07/08 06:19:55;;;;;;;9.15;5.05;;;31.50;56.60;;;;;;6244656;23;20122;-76
2023/07/08 06:22:21;;;;;;;11.73;4.90;;;31.40;56.80;;;;;;6244422;23;20403;-77
2023/07/08 06:24:47;;;;;;;9.00;5.88;;;31.10;56.50;;;;;;6244299;23;20004;-77
2023/07/08 06:27:13;;;;;;;12.65;5.53;;;31.20;56.60;;;;;;6244503;23;20038;-77
2023/07/08 06:29:39;;;;;;;9.73;4.90;;;31.50;57.00;;;;;;6248898;23;20007;-78
2023/07/08 06:32:06;;;;;;;11.60;5.00;;;31.80;55.90;;;;;;6249650;23;20020;-77
2023/07/08 06:34:32;;;;;;;11.50;4.90;;;31.90;55.40;;;;;;6245361;23;20071;-78
2023/07/08 06:36:57;;;;;;;11.35;5.13;;;32.20;55.30;;;;;;6244844;23;20398;-79
2023/07/08 06:39:23;;;;;;;7.82;4.38;;;32.50;55.00;;;;;;6244207;23;20074;-78
2023/07/08 06:41:49;;;;;;;10.77;5.32;;;32.60;54.60;;;;;;6244292;23;20032;-78
2023/07/08 06:44:15;;;;;;;11.00;5.03;;;32.80;54.20;;;;;;6244639;23;20008;-78
2023/07/08 06:46:41;;;;;;;9.80;5.32;;;32.90;53.80;;;;;;6244439;23;20394;-78
2023/07/08 06:49:09;;;;;;;12.80;6.15;;;32.90;53.70;;;;;;6244539;23;20000;-79
2023/07/08 06:51:36;;;;;;;14.98;4.72;;;32.90;53.10;;;;;;6244752;23;20335;-78
2023/07/08 06:54:10;;;;;;;9.52;4.97;;;33.10;53.60;;;;;;6244198;23;20015;-78
2023/07/08 06:56:38;;;;;;;13.20;9.07;;;33.20;52.60;;;;;;6244959;23;20079;-80
2023/07/08 06:59:04;;;;;;;10.23;6.55;;;33.40;53.30;;;;;;6244444;23;20000;-79
2023/07/08 07:01:30;;;;;;;14.88;5.68;;;33.40;53.10;;;;;;6245276;23;20487;-80
2023/07/08 07:03:56;;;;;;;14.07;5.35;;;33.40;53.00;;;;;;6244555;23;20091;-80
2023/07/08 07:06:21;;;;;;;13.00;5.20;;;33.50;52.90;;;;;;6244790;23;20043;-77
2023/07/08 07:08:48;;;;;;;11.75;4.90;;;33.70;52.90;;;;;;6244942;23;20368;-79
2023/07/08 07:11:14;;;;;;;11.98;5.30;;;33.80;52.90;;;;;;6245347;23;20018;-79
2023/07/08 07:13:39;;;;;;;9.85;4.82;;;33.80;52.60;;;;;;6244734;23;19996;-78
2023/07/08 07:16:05;;;;;;;9.73;5.45;;;33.90;52.40;;;;;;6244470;23;20008;-79
2023/07/08 07:18:31;;;;;;;13.38;5.38;;;34.00;52.70;;;;;;6244958;23;20027;-78
2023/07/08 07:20:58;;;;;;;10.68;4.90;;;34.10;52.40;;;;;;6244814;23;20027;-81
2023/07/08 07:23:24;;;;;;;10.43;5.30;;;34.20;52.20;;;;;;6245105;23;20027;-77
2023/07/08 07:25:50;;;;;;;11.45;5.88;;;34.30;51.90;;;;;;6244840;23;20000;-79
2023/07/08 07:28:16;;;;;;;10.40;5.25;;;34.30;51.60;;;;;;6244533;23;20386;-79
2023/07/08 07:30:46;;;;;;;11.38;4.70;;;34.20;51.50;;;;;;6244212;23;20457;-78
2023/07/08 07:33:12;;;;;;;11.02;5.82;;;34.20;51.80;;;;;;6243820;23;20006;-77
2023/07/08 07:35:47;;;;;;;11.93;5.30;;;34.20;52.40;;;;;;6244538;23;20123;-79
2023/07/08 07:38:14;;;;;;;11.98;4.95;;;34.20;51.70;;;;;;6246419;23;19997;-78
2023/07/08 07:40:40;;;;;;;11.60;6.63;;;34.10;51.60;;;;;;6219448;23;20012;-79
2023/07/08 07:43:06;;;;;;;13.90;6.53;;;34.00;51.60;;;;;;6245838;23;20082;-80
2023/07/08 07:45:32;;;;;;;10.27;6.47;;;34.00;51.70;;;;;;6245679;23;20000;-78
2023/07/08 07:47:57;;;;;;;12.98;6.22;;;34.00;51.50;;;;;;6246111;23;20074;-79
2023/07/08 07:50:23;;;;;;;8.88;5.53;;;34.00;51.50;;;;;;6246049;23;20320;-80
2023/07/08 07:52:49;;;;;;;10.30;5.20;;;34.10;51.60;;;;;;6246548;23;20075;-79
2023/07/08 07:55:15;;;;;;;8.45;5.65;;;34.00;51.60;;;;;;6246122;23;20004;-79
2023/07/08 07:57:41;;;;;;;11.55;5.13;;;33.90;51.60;;;;;;6245917;23;20111;-77
2023/07/08 08:00:08;;;;;;;16.88;6.00;;;33.80;51.70;;;;;;6218820;23;20105;-79
2023/07/08 08:02:34;;;;;;;13.13;5.70;;;33.80;51.60;;;;;;6245795;23;20012;-78
2023/07/08 08:05:00;;;;;;;11.32;5.53;;;33.70;51.90;;;;;;6245662;23;20004;-79
2023/07/08 08:07:26;;;;;;;11.93;6.35;;;33.80;52.20;;;;;;6245361;23;20004;-79
2023/07/08 08:09:52;;;;;;;9.25;5.88;;;33.90;52.00;;;;;;6219193;23;20016;-78
2023/07/08 08:12:18;;;;;;;19.08;10.43;;;33.90;51.90;;;;;;6246664;23;20012;-79
2023/07/08 08:14:44;;;;;;;11.50;5.70;;;33.90;51.80;;;;;;6247220;23;20053;-79
2023/07/08 08:17:09;;;;;;;14.95;5.80;;;33.80;52.10;;;;;;6245975;23;20031;-77
2023/07/08 08:19:35;;;;;;;19.88;6.53;;;33.60;52.20;;;;;;6245505;23;20001;-79
2023/07/08 08:22:01;;;;;;;15.70;6.43;;;33.60;52.40;;;;;;6245473;23;20000;-78
2023/07/08 08:24:27;;;;;;;14.32;6.00;;;33.50;52.30;;;;;;6250082;23;20054;-78
2023/07/08 08:26:53;;;;;;;18.23;6.22;;;33.60;52.50;;;;;;6246448;23;20084;-79
2023/07/08 08:29:18;;;;;;;14.13;5.68;;;33.40;52.50;;;;;;6245412;23;20421;-78
2023/07/08 08:31:44;;;;;;;8.93;5.22;;;33.40;52.70;;;;;;6218255;23;20032;-80
2023/07/08 08:34:10;;;;;;;11.85;5.55;;;33.30;52.80;;;;;;6245340;23;20004;-80
2023/07/08 08:36:35;;;;;;;13.45;6.47;;;33.20;53.00;;;;;;6245707;23;20020;-79
2023/07/08 08:39:01;;;;;;;17.58;5.75;;;33.20;53.20;;;;;;6245091;23;20004;-78
2023/07/08 08:41:31;;;;;;;14.23;6.78;;;33.10;53.30;;;;;;6245609;23;20000;-79
2023/07/08 08:43:59;;;;;;;11.30;6.18;;;33.10;53.50;;;;;;6245099;23;19996;-80
2023/07/08 08:46:52;;;;;;;8.90;5.38;;;33.00;53.60;;;;;;6245517;23;20012;-79
2023/07/08 08:49:20;;;;;;;13.57;6.70;;;33.00;52.80;;;;;;6245271;23;20426;-77
2023/07/08 08:51:48;;;;;;;12.23;6.35;;;33.00;53.80;;;;;;6245154;23;20035;-78
2023/07/08 08:54:13;;;;;;;12.40;6.07;;;32.90;53.80;;;;;;6245376;23;20330;-77
2023/07/08 08:57:04;;;;;;;16.63;6.50;;;32.90;54.00;;;;;;6244800;23;20000;-77
2023/07/08 08:59:45;;;;;;;13.70;6.30;;;32.80;53.70;;;;;;6174765;23;20532;-78
2023/07/08 09:02:32;;;;;;;10.57;6.00;;;32.70;54.30;;;;;;6244763;23;20004;-77
2023/07/08 09:05:19;;;;;;;11.43;5.65;;;32.80;53.40;;;;;;6245081;23;20039;-78
2023/07/08 09:08:00;;;;;;;17.98;6.40;;;32.80;53.20;;;;;;6245253;23;19996;-79
2023/07/08 09:10:40;;;;;;;9.88;5.88;;;32.80;53.30;;;;;;6244829;23;20027;-78
2023/07/08 09:13:07;;;;;;;10.77;5.95;;;32.80;53.30;;;;;;6244481;23;20008;-78
2023/07/08 09:15:34;;;;;;;14.13;6.05;;;32.90;54.40;;;;;;6245108;23;20008;-79
2023/07/08 09:18:14;;;;;;;13.82;6.40;;;32.90;54.50;;;;;;6244850;23;20105;-78
2023/07/08 09:20:41;;;;;;;13.13;6.20;;;32.90;54.50;;;;;;6244745;23;20024;-76
2023/07/08 09:23:21;;;;;;;10.43;5.90;;;32.90;54.30;;;;;;6244513;23;20004;-80
2023/07/08 09:25:52;;;;;;;12.35;6.45;;;32.90;54.40;;;;;;6244466;23;20540;-78
2023/07/08 09:28:18;;;;;;;15.43;7.00;;;32.90;54.40;;;;;;6244792;23;20004;-78
2023/07/08 09:30:52;;;;;;;10.68;6.00;;;32.80;54.50;;;;;;6244226;23;20130;-79
2023/07/08 09:33:18;;;;;;;12.85;6.85;;;32.80;54.60;;;;;;6244311;23;20362;-78
2023/07/08 09:35:47;;;;;;;10.60;6.15;;;32.80;54.60;;;;;;6244536;23;20138;-78
2023/07/08 09:38:21;;;;;;;13.25;6.25;;;32.80;54.80;;;;;;6244235;23;20095;-78
2023/07/08 09:40:49;;;;;;;12.93;6.93;;;32.90;54.70;;;;;;6244043;23;20001;-77
2023/07/08 09:43:15;;;;;;;13.85;6.55;;;32.90;54.70;;;;;;6244127;23;20394;-79
2023/07/08 09:45:46;;;;;;;15.27;6.25;;;33.00;54.70;;;;;;6244541;23;20028;-79
2023/07/08 09:48:20;;;;;;;10.50;6.40;;;33.00;54.50;;;;;;6217845;23;20044;-78
2023/07/08 09:50:49;;;;;;;11.07;6.43;;;33.00;54.60;;;;;;6244043;23;20066;-79
2023/07/08 09:53:14;;;;;;;9.63;6.63;;;33.10;54.70;;;;;;6244350;23;20367;-76
2023/07/08 09:55:40;;;;;;;10.10;5.75;;;33.00;54.60;;;;;;6244472;23;20000;-78
2023/07/08 09:58:18;;;;;;;9.63;6.45;;;33.00;54.60;;;;;;6244641;23;20004;-80
2023/07/08 10:00:53;;;;;;;14.68;6.15;;;33.10;53.70;;;;;;6244778;23;20007;-79
2023/07/08 10:03:26;;;;;;;13.88;6.13;;;33.10;54.60;;;;;;6244565;23;20011;-80
2023/07/08 10:05:57;;;;;;;13.60;5.90;;;33.10;54.70;;;;;;6245795;23;20004;-78
2023/07/08 10:08:24;;;;;;;14.13;6.05;;;33.20;54.60;;;;;;6244696;23;20052;-77
2023/07/08 10:10:59;;;;;;;14.70;6.15;;;33.20;54.50;;;;;;6244058;23;20054;-77
2023/07/08 10:13:41;;;;;;;12.40;6.82;;;33.20;54.40;;;;;;6244353;23;20003;-78
2023/07/08 10:16:13;;;;;;;12.25;6.15;;;33.10;53.40;;;;;;6245064;23;20000;-77
2023/07/08 10:18:39;;;;;;;12.05;6.40;;;33.20;54.20;;;;;;6250439;23;20369;-78
2023/07/08 10:21:08;;;;;;;13.95;6.18;;;33.30;54.50;;;;;;6250848;23;20028;-78
2023/07/08 10:23:54;;;;;;;12.15;6.15;;;33.30;53.20;;;;;;6245340;23;20004;-78
2023/07/08 10:26:28;;;;;;;16.27;5.90;;;33.40;53.10;;;;;;6244582;23;20103;-77
2023/07/08 10:29:09;;;;;;;15.35;6.00;;;33.40;54.00;;;;;;6244866;23;20042;-79
2023/07/08 10:31:35;;;;;;;8.55;5.60;;;33.30;52.90;;;;;;6244491;23;20442;-80
2023/07/08 10:34:17;;;;;;;8.50;5.93;;;33.40;54.00;;;;;;6244759;23;20046;-78
2023/07/08 10:36:54;;;;;;;12.48;5.22;;;33.40;53.00;;;;;;6244262;23;20398;-69
2023/07/08 10:39:28;;;;;;;10.50;6.15;;;33.50;53.90;;;;;;6244520;23;20075;-79
2023/07/08 10:41:57;;;;;;;14.43;6.32;;;33.60;52.90;;;;;;6245062;23;19996;-79
2023/07/08 10:45:03;;;;;;;12.23;6.35;;;33.70;52.90;;;;;;6244988;23;20039;-79
2023/07/08 10:48:02;;;;;;;9.43;6.18;;;33.80;52.60;;;;;;6110930;23;20107;-78
2023/07/08 10:50:53;;;;;;;11.27;6.53;;;33.80;52.30;;;;;;6244318;23;20016;-79
2023/07/08 10:53:38;;;;;;;11.52;6.10;;;33.80;52.40;;;;;;6244383;23;20444;-78
2023/07/08 10:56:22;;;;;;;13.68;6.53;;;33.80;52.20;;;;;;6244423;23;20007;-77
2023/07/08 10:59:28;;;;;;;14.07;6.22;;;33.90;53.00;;;;;;6244214;23;20004;-79
2023/07/08 11:02:00;;;;;;;12.07;6.35;;;33.90;52.20;;;;;;6222210;23;20050;-79
2023/07/08 11:04:34;;;;;;;9.48;5.82;;;34.00;51.90;;;;;;6244446;23;20496;-80
2023/07/08 11:07:30;;;;;;;10.77;5.32;;;34.00;51.70;;;;;;6244243;23;20503;-76
2023/07/08 11:10:05;;;;;;;13.52;5.90;;;34.10;52.00;;;;;;6244088;23;20409;-79
2023/07/08 11:12:33;;;;;;;13.95;5.70;;;34.20;52.70;;;;;;6246172;23;20004;-79
2023/07/08 11:15:16;;;;;;;11.45;6.00;;;34.20;52.30;;;;;;6246295;23;20000;-79
2023/07/08 11:18:11;;;;;;;10.05;5.75;;;34.10;51.10;;;;;;6245791;23;19996;-79
2023/07/08 11:20:53;;;;;;;11.80;6.65;;;34.10;51.40;;;;;;6245820;23;20007;-79
2023/07/08 11:23:49;;;;;;;14.07;6.00;;;34.10;51.20;;;;;;6245793;23;20083;-80
2023/07/08 11:26:30;;;;;;;10.48;6.18;;;34.20;51.20;;;;;;6246171;23;20004;-78
2023/07/08 11:29:00;;;;;;;8.63;5.93;;;34.30;51.10;;;;;;6246345;23;20075;-80
2023/07/08 11:31:32;;;;;;;9.38;5.45;;;34.40;51.80;;;;;;6246046;23;20015;-78
2023/07/08 11:33:59;;;;;;;8.93;5.45;;;34.40;51.80;;;;;;6245831;23;20118;-78
2023/07/08 11:36:25;;;;;;;9.90;5.55;;;34.40;51.80;;;;;;6246221;23;20038;-79
2023/07/08 11:38:54;;;;;;;9.38;5.40;;;34.40;51.90;;;;;;6246549;23;20008;-80
2023/07/08 11:41:24;;;;;;;13.15;5.95;;;34.60;51.80;;;;;;6246108;23;20008;-79
2023/07/08 11:43:52;;;;;;;11.32;5.35;;;34.60;51.20;;;;;;6246317;23;20422;-78
2023/07/08 11:46:25;;;;;;;11.13;6.35;;;34.70;51.10;;;;;;6245909;23;20004;-79
2023/07/08 11:48:56;;;;;;;13.75;5.72;;;34.70;50.80;;;;;;6246181;23;20035;-79
2023/07/08 11:51:28;;;;;;;9.15;5.70;;;34.90;50.90;;;;;;6245385;23;20111;-78
2023/07/08 11:54:29;;;;;;;7.80;5.30;;;34.90;50.90;;;;;;6245849;23;20007;-80
2023/07/08 11:57:03;;;;;;;10.52;5.18;;;35.00;50.00;;;;;;6245949;23;20338;-78
2023/07/08 11:59:32;;;;;;;11.07;5.68;;;34.90;51.10;;;;;;6245763;23;20461;-78
2023/07/08 12:02:18;;;;;;;10.80;5.32;;;35.00;51.00;;;;;;6245841;23;20445;-79
2023/07/08 12:05:02;;;;;;;9.00;5.95;;;35.00;51.00;;;;;;6245961;23;20000;-78
2023/07/08 12:07:36;;;;;;;13.52;5.60;;;35.10;50.90;;;;;;6245760;23;20075;-79
2023/07/08 12:10:17;;;;;;;11.77;5.72;;;35.10;51.00;;;;;;6250698;23;20004;-77
2023/07/08 12:12:45;;;;;;;10.10;4.95;;;35.20;50.70;;;;;;6248217;23;20018;-78
2023/07/08 12:15:18;;;;;;;11.90;5.20;;;35.30;50.80;;;;;;6245784;23;20067;-78
2023/07/08 12:17:44;;;;;;;11.80;5.90;;;35.30;50.40;;;;;;6245693;23;20004;-79
2023/07/08 12:20:21;;;;;;;8.15;5.35;;;35.30;50.20;;;;;;6245130;23;20008;-78
2023/07/08 12:22:47;;;;;;;9.50;5.63;;;35.20;50.10;;;;;;6244731;23;20000;-79
2023/07/08 12:25:19;;;;;;;15.25;5.90;;;35.20;50.00;;;;;;6245149;23;20004;-79
2023/07/08 12:27:46;;;;;;;13.02;5.53;;;35.20;49.90;;;;;;6245470;23;20058;-79
2023/07/08 12:30:13;;;;;;;10.70;5.68;;;35.10;49.80;;;;;;6245106;23;20099;-79
2023/07/08 12:32:40;;;;;;;10.30;6.93;;;35.20;49.80;;;;;;6245569;23;20012;-78
2023/07/08 12:35:23;;;;;;;9.55;6.53;;;35.20;49.60;;;;;;6218571;23;19988;-78
2023/07/08 12:37:52;;;;;;;10.07;6.30;;;35.20;49.30;;;;;;6218179;23;20065;-78
2023/07/08 12:40:18;;;;;;;10.30;6.07;;;35.30;49.40;;;;;;6245247;23;20001;-79
2023/07/08 12:42:45;;;;;;;11.10;5.47;;;35.30;49.30;;;;;;6244796;23;20011;-79
2023/07/08 12:45:20;;;;;;;11.50;5.60;;;35.40;49.30;;;;;;6245487;23;20004;-79
2023/07/08 12:47:46;;;;;;;9.60;5.82;;;35.60;49.50;;;;;;6245391;23;20075;-80
2023/07/08 12:50:13;;;;;;;11.73;5.35;;;35.60;49.80;;;;;;6244681;23;20004;-78